Wednesday, July 23, 2014
03:39 UTC
  |  Log In   |  Register Free
Airport Search:

Henry Post Aaf (Fort Sill) Airport
(KFSI)

Henry Post Aaf (Fort Sill) Airport Diagram
No Airport Diagram Available

FAA data valid effective May 29, 2014 until July 24, 2014 (unless otherwise noted).

 
 
 
 
 
 
 
 
 
 
 
 
 
 

Current Aviation Weather for Henry Post Aaf (Fort Sill) Airport (KFSI)

The most recent METAR observation for KFSI was updated at: 0158 UTC
METAR Summary (Translated METAR)
KFSI
230158Z AUTO 15006KT 10SM CLR 31/20 A3006 RMK AO2 SLP169 T03080200
KLAW
(5.0 nm SW from KFSI)
230153Z AUTO 13006KT 10SM CLR 32/19 A3006 RMK AO2 SLP165 T03220189
TAF Summary (Translated TAF)
KFSI
2222/2403 13010KT 9999 SKC QNH3006INS BECMG 2302/2303 VRB06KT 9999 FEW150 QNH3003INS BECMG 2317/2318 20012KT 9999 SKC QNH3014INS TX38/2320Z TN23/2311Z AMD 222203 LAST NO AMDS AFT 2222 NEXT 2313
KLAW
(5.0 nm SW from KFSI)
221724Z 2218/2318 19012KT P6SM FEW040 FM230100 16004KT P6SM FEW250
  Airport Weather Conditions for KFSI

 Current Weather at FSI
85° F
Fair
Southeast winds at 6.9 mph
FSI NOAA Radar

Pressure: 30.07 in
Humidity: 60%
Wind: Southeast at 6.9 MPH (6 KT)
Dew Point: 69.8°F
Visibility: 10.00 mi


Airport Weather Forecast for KFSI

Translated METAR and TAF for KFSI
Translated METAR for KFSI (0332 UTC 23 July 2014)
found at http://aviationweather.gov/adds/metars/
 
METAR text: KFSI 230258Z AUTO 15006KT 10SM CLR 30/21 A3007 RMK AO2 SLP172 T02960210 52012
Conditions at: KFSI (FORT SILL , OK, US) observed 0258 UTC 23 July 2014
Temperature: 29.6°C (85°F)
Dewpoint: 21.0°C (70°F) [RH = 60%]
Pressure (altimeter): 30.07 inches Hg (1018.4 mb)
[Sea-level pressure: 1017.2 mb]
Winds: from the SSE (150 degrees) at 7 MPH (6 knots; 3.1 m/s)
Visibility: 10 or more miles (16+ km)
Ceiling: at least 12,000 feet AGL
Clouds: sky clear below 12,000 feet AGL
Weather: automated observation with no human augmentation;
there may or may not be significant weather present at this time
Translated TAF for KFSI
Forecast for: KFSI (FORT SILL , OK, US)
TAF Text: TAF AMD KFSI 2222/2403 13010KT 9999 SKC QNH3006INS
Forecast period: 2200 UTC 22 July 2014 to 0200 UTC 23 July 2014
Forecast type: FROM: standard forecast or significant change
Winds: from the SE (130 degrees) at 12 MPH (10 knots; 5.2 m/s)
Visibility: 6 or more miles (10+ km)
Clouds: clear skies
Weather: no significant weather forecast for this period
TAF Text: BECMG 2302/2303 VRB06KT 9999 FEW150 QNH3003INS
Forecast period: 0200 to 1700 UTC 23 July 2014
Forecast type: BECOMING: Conditions expected to become as follows by 0300 UTC 23 July 2014
Winds: variable direction winds at 7 MPH (6 knots; 3.1 m/s)
Visibility: 6 or more miles (10+ km)
Clouds: few clouds at 15000 feet AGL
Weather: no significant weather forecast for this period
TAF Text: BECMG 2317/2318 20012KT 9999 SKC QNH3014INS TX38/2320Z TN23/2311Z AMD 222203 LAST NO AMDS AFT 2222 NEXT 2313
Forecast period: 1700 UTC 23 July 2014 to 0300 UTC 24 July 2014
Forecast type: BECOMING: Conditions expected to become as follows by 1800 UTC 23 July 2014
Winds: from the SSW (200 degrees) at 14 MPH (12 knots; 6.2 m/s)
Visibility: 6 or more miles (10+ km)
Clouds: clear skies
Weather: no significant weather forecast for this period

Find All Airport Services Find A Hotel Find A Rental Car Find A Golf Course Find A Restaurant $100 Hamburger



FBO's on the Field
FBO Company Facility Photos Services Transportation Aviation Fuel Prices: Prices include tax
Catering Weather Repair Courtesy Rental Type 100LL JetA JetA+ MOGAS 8087
 
Add another FBO Facility Photos Catering Weather Repair Courtesy Rental Type 100LL JetA JetA+ MOGAS 8087
Services Transportation Aviation Fuel Prices: Prices include tax
There are no FBO's currently reporting fuel at FSI. List your FBO now


GlobalAir.com Airport Resource Center model-print
model-print
model-print
model-print